Time;durP1;ratioP1;P1;durP2;ratioP2;P2;SDS_P1;SDS_P2;PMS_P1;PMS_P2;Temp;Humidity;BMP_temperature;BMP_pressure;BME280_temperature;BME280_humidity;BME280_pressure;Samples;Min_cycle;Max_cycle;Signal;HPM_P1;HPM_P2
2022/07/09 00:00:42;;;;;;;;;;;17.00;99.90;;;;;;5023615;28;19963;-55
2022/07/09 00:03:26;;;;;;;;;;;17.00;99.90;;;;;;5032697;28;19931;-53
2022/07/09 00:06:10;;;;;;;;;;;17.00;99.90;;;;;;5032944;28;20015;-52
2022/07/09 00:08:54;;;;;;;;;;;17.00;99.90;;;;;;5032054;28;19966;-56
2022/07/09 00:11:39;;;;;;;;;;;16.90;99.90;;;;;;5016149;28;19920;-56
2022/07/09 00:14:23;;;;;;;;;;;16.90;99.90;;;;;;5033187;28;19920;-53
2022/07/09 00:17:07;;;;;;;;;;;16.90;99.90;;;;;;5031586;28;19916;-54
2022/07/09 00:19:52;;;;;;;;;;;17.00;99.90;;;;;;5032376;28;20369;-51
2022/07/09 00:22:36;;;;;;;;;;;17.00;99.90;;;;;;5032573;28;19916;-54
2022/07/09 00:25:21;;;;;;;;;;;17.00;99.90;;;;;;5032867;28;19967;-57
2022/07/09 00:28:05;;;;;;;;;;;17.00;99.90;;;;;;5031971;28;19916;-55
2022/07/09 00:30:49;;;;;;;;;;;17.00;99.90;;;;;;5032846;28;20010;-53
2022/07/09 00:33:33;;;;;;;;;;;16.90;99.90;;;;;;5032478;28;19916;-52
2022/07/09 00:36:17;;;;;;;;;;;16.80;99.90;;;;;;5033454;28;20504;-51
2022/07/09 00:39:02;;;;;;;;;;;16.70;99.90;;;;;;5032082;28;19924;-50
2022/07/09 00:41:46;;;;;;;;;;;16.70;99.90;;;;;;5016281;28;19940;-55
2022/07/09 00:44:30;;;;;;;;;;;16.70;99.90;;;;;;5031875;28;19919;-54
2022/07/09 00:47:14;;;;;;;;;;;16.70;99.90;;;;;;5031538;28;19916;-52
2022/07/09 00:49:59;;;;;;;;;;;16.70;99.90;;;;;;5032723;28;20341;-51
2022/07/09 00:52:44;;;;;;;;;;;16.60;99.90;;;;;;5032847;28;20391;-52
2022/07/09 00:55:28;;;;;;;;;;;16.50;99.90;;;;;;5030838;28;19935;-50
2022/07/09 00:58:13;;;;;;;;;;;16.50;99.90;;;;;;5031859;28;20404;-53
2022/07/09 01:00:58;;;;;;;;;;;16.50;99.90;;;;;;5033053;28;19923;-51
2022/07/09 01:03:42;;;;;;;;;;;16.50;99.90;;;;;;5033358;28;19916;-53
2022/07/09 01:06:26;;;;;;;;;;;16.50;99.90;;;;;;5031587;28;20383;-53
2022/07/09 01:09:10;;;;;;;;;;;16.60;99.90;;;;;;5033056;28;19942;-52
2022/07/09 01:11:55;;;;;;;;;;;16.60;99.90;;;;;;5032140;28;20020;-52
2022/07/09 01:14:39;;;;;;;;;;;16.60;99.90;;;;;;5031975;28;20016;-49
2022/07/09 01:17:24;;;;;;;;;;;16.60;99.90;;;;;;5031908;28;19979;-51
2022/07/09 01:20:08;;;;;;;;;;;16.70;99.90;;;;;;5032592;28;19975;-53
2022/07/09 01:22:52;;;;;;;;;;;16.60;99.90;;;;;;5032445;28;20047;-52
2022/07/09 01:25:37;;;;;;;;;;;16.60;99.90;;;;;;5032309;28;19920;-50
2022/07/09 01:28:22;;;;;;;;;;;16.60;99.90;;;;;;5033306;28;19916;-51
2022/07/09 01:31:06;;;;;;;;;;;16.60;99.90;;;;;;5026135;28;19920;-50
2022/07/09 01:33:51;;;;;;;;;;;16.50;99.90;;;;;;5031466;28;20327;-52
2022/07/09 01:36:35;;;;;;;;;;;16.40;99.90;;;;;;5032106;28;19967;-51
2022/07/09 01:39:19;;;;;;;;;;;16.40;99.90;;;;;;5034396;28;20016;-49
2022/07/09 01:42:03;;;;;;;;;;;16.30;99.90;;;;;;5036315;28;20308;-50
2022/07/09 01:44:48;;;;;;;;;;;16.30;99.90;;;;;;5035190;28;20037;-51
2022/07/09 01:47:32;;;;;;;;;;;16.30;99.90;;;;;;5036063;28;19958;-54
2022/07/09 01:50:16;;;;;;;;;;;16.40;99.90;;;;;;5035552;28;19912;-52
2022/07/09 01:53:00;;;;;;;;;;;16.50;99.90;;;;;;5035212;28;19932;-53
2022/07/09 01:55:45;;;;;;;;;;;16.60;99.90;;;;;;5035138;28;20295;-54
2022/07/09 01:58:29;;;;;;;;;;;16.70;99.90;;;;;;5034676;28;19916;-52
2022/07/09 02:01:13;;;;;;;;;;;16.70;99.90;;;;;;5030905;28;19924;-57
2022/07/09 02:03:57;;;;;;;;;;;16.80;99.90;;;;;;5015785;28;19935;-54
2022/07/09 02:06:42;;;;;;;;;;;16.90;99.90;;;;;;5020677;28;20359;-51
2022/07/09 02:09:26;;;;;;;;;;;17.00;99.90;;;;;;5035729;28;19974;-51
2022/07/09 02:12:10;;;;;;;;;;;17.00;99.90;;;;;;5035627;28;20229;-54
2022/07/09 02:14:54;;;;;;;;;;;17.00;99.90;;;;;;5020037;28;19920;-53
2022/07/09 02:17:38;;;;;;;;;;;17.00;99.90;;;;;;5034643;28;19916;-53
2022/07/09 02:20:23;;;;;;;;;;;17.00;99.90;;;;;;5019807;28;19970;-54
2022/07/09 02:23:07;;;;;;;;;;;16.90;99.90;;;;;;5035094;28;20026;-49
2022/07/09 02:25:52;;;;;;;;;;;16.90;99.90;;;;;;5035154;28;20351;-58
2022/07/09 02:28:36;;;;;;;;;;;16.80;99.90;;;;;;5018226;28;19921;-54
2022/07/09 02:31:20;;;;;;;;;;;16.80;99.90;;;;;;5035814;28;19916;-52
2022/07/09 02:34:04;;;;;;;;;;;16.70;99.90;;;;;;5035673;28;19940;-51
2022/07/09 02:36:49;;;;;;;;;;;16.60;99.90;;;;;;5036519;28;19959;-50
2022/07/09 02:39:33;;;;;;;;;;;16.50;99.90;;;;;;5036072;28;19971;-52
2022/07/09 02:42:17;;;;;;;;;;;16.50;99.90;;;;;;5020215;28;20280;-52
2022/07/09 02:45:01;;;;;;;;;;;16.50;99.90;;;;;;5034861;28;20379;-49
2022/07/09 02:47:45;;;;;;;;;;;16.50;99.90;;;;;;5034657;28;20265;-51
2022/07/09 02:50:30;;;;;;;;;;;16.30;99.90;;;;;;5033532;28;19916;-50
2022/07/09 02:53:14;;;;;;;;;;;16.30;99.90;;;;;;5026967;28;19920;-50
2022/07/09 02:55:58;;;;;;;;;;;16.30;99.90;;;;;;5034252;28;20276;-49
2022/07/09 02:58:42;;;;;;;;;;;16.20;99.90;;;;;;5035003;28;19920;-50
2022/07/09 03:01:27;;;;;;;;;;;16.20;99.90;;;;;;5033439;28;19931;-56
2022/07/09 03:04:11;;;;;;;;;;;16.00;99.90;;;;;;5034011;28;19920;-52
2022/07/09 03:06:55;;;;;;;;;;;16.10;99.90;;;;;;5035225;28;19964;-51
2022/07/09 03:09:40;;;;;;;;;;;16.10;99.90;;;;;;5023138;28;19920;-54
2022/07/09 03:12:24;;;;;;;;;;;16.10;99.90;;;;;;5034102;28;19963;-50
2022/07/09 03:15:08;;;;;;;;;;;16.10;99.90;;;;;;5034653;28;19916;-56
2022/07/09 03:17:52;;;;;;;;;;;16.00;99.90;;;;;;5021761;28;19967;-49
2022/07/09 03:20:37;;;;;;;;;;;15.80;99.90;;;;;;5018119;28;20462;-49
2022/07/09 03:23:21;;;;;;;;;;;15.90;99.90;;;;;;5033408;28;19917;-49
2022/07/09 03:26:05;;;;;;;;;;;16.00;99.90;;;;;;5033943;28;19912;-54
2022/07/09 03:28:50;;;;;;;;;;;15.80;99.90;;;;;;5033476;28;19962;-54
2022/07/09 03:31:34;;;;;;;;;;;15.90;99.90;;;;;;5018922;28;19915;-52
2022/07/09 03:34:19;;;;;;;;;;;15.80;99.90;;;;;;5027737;28;19955;-51
2022/07/09 03:37:03;;;;;;;;;;;15.90;99.90;;;;;;5033523;28;19967;-51
2022/07/09 03:39:47;;;;;;;;;;;16.20;99.90;;;;;;5019021;28;19928;-51
2022/07/09 03:42:32;;;;;;;;;;;16.20;99.90;;;;;;5033695;28;19920;-55
2022/07/09 03:45:16;;;;;;;;;;;16.20;99.90;;;;;;5048775;28;20273;-52
2022/07/09 03:48:00;;;;;;;;;;;16.30;99.90;;;;;;5014275;28;20012;-53
2022/07/09 03:50:45;;;;;;;;;;;16.30;99.90;;;;;;5028439;28;19982;-54
2022/07/09 03:53:29;;;;;;;;;;;16.50;99.90;;;;;;5032460;28;20299;-50
2022/07/09 03:56:13;;;;;;;;;;;16.50;99.90;;;;;;5034668;28;19916;-55
2022/07/09 03:58:57;;;;;;;;;;;16.50;99.90;;;;;;5033277;28;19943;-54
2022/07/09 04:01:42;;;;;;;;;;;16.50;99.90;;;;;;5032353;28;19923;-53
2022/07/09 04:04:26;;;;;;;;;;;16.50;99.90;;;;;;5032922;28;19932;-52
2022/07/09 04:07:10;;;;;;;;;;;16.50;99.90;;;;;;5013247;28;20296;-50
2022/07/09 04:09:55;;;;;;;;;;;16.50;99.90;;;;;;5016515;28;19972;-54
2022/07/09 04:12:39;;;;;;;;;;;16.60;99.90;;;;;;5032087;28;19920;-51
2022/07/09 04:15:23;;;;;;;;;;;16.80;99.90;;;;;;5016916;28;19920;-51
2022/07/09 04:18:07;;;;;;;;;;;16.70;99.90;;;;;;5022284;28;19971;-50
2022/07/09 04:20:52;;;;;;;;;;;16.50;99.90;;;;;;5033291;28;20058;-56
2022/07/09 04:23:36;;;;;;;;;;;16.60;99.90;;;;;;5033228;28;20363;-53
2022/07/09 04:26:20;;;;;;;;;;;16.60;99.90;;;;;;5033330;28;20052;-53
2022/07/09 04:29:04;;;;;;;;;;;16.60;99.90;;;;;;5031975;28;19920;-52
2022/07/09 04:31:49;;;;;;;;;;;16.80;99.90;;;;;;5032309;28;20016;-51
2022/07/09 04:34:34;;;;;;;;;;;16.80;99.90;;;;;;5031564;28;19955;-50
2022/07/09 04:37:18;;;;;;;;;;;16.70;99.90;;;;;;5012857;28;19992;-52
2022/07/09 04:40:04;;;;;;;;;;;16.70;99.90;;;;;;5015951;28;20678;-53
2022/07/09 04:42:48;;;;;;;;;;;16.60;99.90;;;;;;5032373;28;19959;-53
2022/07/09 04:45:34;;;;;;;;;;;16.70;99.90;;;;;;5032088;28;19936;-56
2022/07/09 04:48:18;;;;;;;;;;;16.80;99.90;;;;;;5032186;28;20047;-49
2022/07/09 04:51:02;;;;;;;;;;;16.70;99.90;;;;;;5032066;28;19932;-50
2022/07/09 04:53:46;;;;;;;;;;;16.70;99.90;;;;;;5031645;28;19959;-51
2022/07/09 04:56:30;;;;;;;;;;;16.70;99.90;;;;;;5033244;28;19951;-50
2022/07/09 04:59:15;;;;;;;;;;;16.50;99.90;;;;;;5033044;28;19919;-52
2022/07/09 05:01:59;;;;;;;;;;;16.60;99.90;;;;;;5030905;28;19959;-54
2022/07/09 05:04:43;;;;;;;;;;;16.60;99.90;;;;;;5032636;28;19920;-55
2022/07/09 05:07:28;;;;;;;;;;;16.70;99.90;;;;;;5032097;28;20014;-54
2022/07/09 05:10:12;;;;;;;;;;;16.70;99.90;;;;;;5017745;28;20383;-54
2022/07/09 05:12:56;;;;;;;;;;;16.60;99.90;;;;;;5032773;28;20031;-54
2022/07/09 05:15:40;;;;;;;;;;;16.70;99.90;;;;;;5021691;28;19919;-55
2022/07/09 05:18:24;;;;;;;;;;;16.80;99.90;;;;;;5032269;28;19916;-53
2022/07/09 05:21:09;;;;;;;;;;;16.80;99.90;;;;;;5035499;28;20018;-54
2022/07/09 05:23:53;;;;;;;;;;;16.70;99.90;;;;;;5036336;28;19912;-54
2022/07/09 05:26:37;;;;;;;;;;;16.70;99.90;;;;;;5035976;28;20277;-53
2022/07/09 05:29:22;;;;;;;;;;;16.70;99.90;;;;;;5034719;28;20426;-50
2022/07/09 05:32:07;;;;;;;;;;;16.70;99.90;;;;;;5036147;28;19959;-52
2022/07/09 05:34:51;;;;;;;;;;;16.70;99.90;;;;;;5035446;28;19971;-53
2022/07/09 05:37:42;;;;;;;;;;;16.70;99.90;;;;;;5036292;28;19920;-50
2022/07/09 05:40:26;;;;;;;;;;;16.70;99.90;;;;;;5036086;28;19920;-48
2022/07/09 05:43:10;;;;;;;;;;;16.80;99.90;;;;;;5035600;28;20122;-50
2022/07/09 05:45:54;;;;;;;;;;;16.90;99.90;;;;;;5036075;28;19962;-54
2022/07/09 05:48:38;;;;;;;;;;;17.00;99.90;;;;;;5035685;28;19924;-52
2022/07/09 05:51:23;;;;;;;;;;;17.10;99.90;;;;;;5029298;28;19966;-55
2022/07/09 05:54:07;;;;;;;;;;;16.90;99.90;;;;;;5035198;28;19940;-56
2022/07/09 05:56:51;;;;;;;;;;;16.90;99.90;;;;;;5035078;28;19974;-50
2022/07/09 05:59:36;;;;;;;;;;;16.90;99.90;;;;;;5035194;28;19997;-53
2022/07/09 06:02:21;;;;;;;;;;;16.90;99.90;;;;;;5035554;28;19920;-53
2022/07/09 06:05:05;;;;;;;;;;;16.90;99.90;;;;;;5035110;28;19920;-58
2022/07/09 06:07:49;;;;;;;;;;;17.10;99.90;;;;;;5030823;28;19924;-56
2022/07/09 06:10:34;;;;;;;;;;;17.10;99.90;;;;;;5034420;28;19954;-56
2022/07/09 06:13:18;;;;;;;;;;;17.30;99.90;;;;;;5035286;28;20391;-53
2022/07/09 06:16:02;;;;;;;;;;;17.20;99.90;;;;;;5035453;28;19935;-53
2022/07/09 06:18:46;;;;;;;;;;;17.30;99.90;;;;;;5034916;28;19971;-57
2022/07/09 06:21:30;;;;;;;;;;;17.30;99.90;;;;;;5034710;28;19920;-51
2022/07/09 06:24:15;;;;;;;;;;;17.20;99.90;;;;;;5034517;28;19920;-51
2022/07/09 06:26:59;;;;;;;;;;;17.40;99.90;;;;;;5034759;28;19912;-54
2022/07/09 06:29:43;;;;;;;;;;;17.50;99.90;;;;;;5034421;28;19920;-50
2022/07/09 06:32:27;;;;;;;;;;;17.60;99.90;;;;;;5035478;28;19939;-51
2022/07/09 06:35:11;;;;;;;;;;;17.80;99.90;;;;;;5034941;28;19964;-54
2022/07/09 06:37:56;;;;;;;;;;;17.80;99.90;;;;;;5028899;28;19959;-52
2022/07/09 06:40:40;;;;;;;;;;;17.70;99.90;;;;;;5019128;28;19971;-51
2022/07/09 06:43:24;;;;;;;;;;;17.60;99.90;;;;;;5034597;28;20292;-52
2022/07/09 06:46:08;;;;;;;;;;;17.70;99.90;;;;;;5034735;28;19917;-53
2022/07/09 06:48:52;;;;;;;;;;;17.70;99.90;;;;;;5033918;28;20117;-54
2022/07/09 06:51:37;;;;;;;;;;;17.80;99.90;;;;;;5030026;28;19920;-51
2022/07/09 06:54:21;;;;;;;;;;;17.80;99.90;;;;;;5034239;28;19920;-51
2022/07/09 06:57:06;;;;;;;;;;;17.90;99.90;;;;;;5032977;28;20391;-56
2022/07/09 06:59:50;;;;;;;;;;;17.90;99.90;;;;;;5033138;28;19927;-51
2022/07/09 07:02:34;;;;;;;;;;;17.70;99.90;;;;;;5020183;28;19968;-52
2022/07/09 07:05:18;;;;;;;;;;;17.70;99.90;;;;;;5032876;28;19912;-52
2022/07/09 07:08:03;;;;;;;;;;;17.60;99.90;;;;;;5033016;28;19915;-51
2022/07/09 07:10:47;;;;;;;;;;;17.70;99.90;;;;;;5026043;28;19916;-53
2022/07/09 07:13:31;;;;;;;;;;;17.60;99.90;;;;;;5032783;28;19966;-54
2022/07/09 07:16:15;;;;;;;;;;;17.60;99.90;;;;;;5029885;28;19920;-51
2022/07/09 07:18:59;;;;;;;;;;;17.60;99.90;;;;;;5032492;28;19968;-55
2022/07/09 07:21:43;;;;;;;;;;;17.70;99.90;;;;;;5032674;28;20009;-55
2022/07/09 07:24:30;;;;;;;;;;;17.80;99.90;;;;;;5033046;28;19920;-56
2022/07/09 07:27:14;;;;;;;;;;;17.90;99.90;;;;;;5032530;28;19916;-53
2022/07/09 07:30:00;;;;;;;;;;;18.00;99.90;;;;;;5034233;28;20383;-55
2022/07/09 07:32:44;;;;;;;;;;;18.00;99.90;;;;;;5017223;28;20275;-56
2022/07/09 07:35:28;;;;;;;;;;;18.10;99.90;;;;;;5032777;28;19916;-54
2022/07/09 07:38:13;;;;;;;;;;;18.30;99.90;;;;;;5017419;28;19924;-57
2022/07/09 07:40:57;;;;;;;;;;;18.30;99.90;;;;;;5031727;28;19924;-56
2022/07/09 07:43:41;;;;;;;;;;;18.40;99.90;;;;;;5017110;28;19920;-56
2022/07/09 07:46:25;;;;;;;;;;;18.30;99.90;;;;;;5032962;28;19915;-55
2022/07/09 07:49:10;;;;;;;;;;;18.60;99.90;;;;;;5032178;28;19940;-56
2022/07/09 07:51:54;;;;;;;;;;;18.80;99.90;;;;;;5017633;28;19915;-55
2022/07/09 07:54:38;;;;;;;;;;;18.90;99.90;;;;;;5031480;28;19966;-52
2022/07/09 07:57:22;;;;;;;;;;;18.90;99.90;;;;;;5023582;28;20386;-55
2022/07/09 08:00:07;;;;;;;;;;;18.80;99.90;;;;;;5032247;28;20264;-56
2022/07/09 08:02:51;;;;;;;;;;;18.60;99.90;;;;;;5031870;28;19916;-56
2022/07/09 08:05:35;;;;;;;;;;;18.50;99.90;;;;;;5032138;28;20096;-55
2022/07/09 08:08:20;;;;;;;;;;;18.50;99.90;;;;;;5016205;28;20434;-58
2022/07/09 08:11:04;;;;;;;;;;;18.50;99.90;;;;;;5031524;28;20375;-55
2022/07/09 08:13:48;;;;;;;;;;;18.40;99.90;;;;;;5031582;28;19955;-55
2022/07/09 08:16:33;;;;;;;;;;;18.50;99.90;;;;;;5026483;28;20288;-56
2022/07/09 08:19:17;;;;;;;;;;;18.70;99.90;;;;;;5030698;28;20097;-55
2022/07/09 08:22:01;;;;;;;;;;;18.80;99.90;;;;;;5031608;28;19940;-54
2022/07/09 08:24:45;;;;;;;;;;;18.80;99.90;;;;;;5028394;28;19955;-56
2022/07/09 08:27:30;;;;;;;;;;;18.70;99.90;;;;;;5031347;28;19928;-54
2022/07/09 08:30:14;;;;;;;;;;;18.60;99.90;;;;;;5029747;28;19959;-55
2022/07/09 08:32:58;;;;;;;;;;;18.70;99.90;;;;;;5031200;28;20375;-58
2022/07/09 08:35:42;;;;;;;;;;;18.60;99.90;;;;;;5031616;28;19970;-58
2022/07/09 08:38:27;;;;;;;;;;;18.60;99.90;;;;;;5031046;28;20292;-54
2022/07/09 08:41:12;;;;;;;;;;;18.50;99.90;;;;;;5030952;28;19924;-56
2022/07/09 08:43:56;;;;;;;;;;;18.40;99.90;;;;;;5024968;28;19916;-54
2022/07/09 08:46:41;;;;;;;;;;;18.40;99.90;;;;;;5031027;28;20244;-53
2022/07/09 08:49:26;;;;;;;;;;;18.50;99.90;;;;;;5031094;28;19915;-56
2022/07/09 08:52:10;;;;;;;;;;;18.50;99.90;;;;;;5031451;28;19945;-56
2022/07/09 08:54:55;;;;;;;;;;;18.50;99.90;;;;;;5031924;28;19967;-56
2022/07/09 08:57:39;;;;;;;;;;;18.60;99.90;;;;;;5019636;28;19920;-55
2022/07/09 09:00:23;;;;;;;;;;;18.70;99.90;;;;;;5015919;28;19924;-53
2022/07/09 09:03:08;;;;;;;;;;;18.80;99.90;;;;;;5031636;28;19935;-55
2022/07/09 09:06:05;;;;;;;;;;;19.20;99.90;;;;;;5015603;28;19916;-55
2022/07/09 09:08:53;;;;;;;;;;;19.30;99.90;;;;;;5031501;28;19916;-54
2022/07/09 09:11:37;;;;;;;;;;;19.50;99.90;;;;;;5031580;28;19936;-55
2022/07/09 09:14:22;;;;;;;;;;;19.80;99.90;;;;;;5030972;28;19920;-58
2022/07/09 09:17:09;;;;;;;;;;;19.90;99.90;;;;;;5022497;28;19916;-52
2022/07/09 09:19:53;;;;;;;;;;;20.00;99.90;;;;;;5015561;28;19916;-55
2022/07/09 09:22:43;;;;;;;;;;;20.20;99.90;;;;;;5011507;28;20012;-58
2022/07/09 09:25:28;;;;;;;;;;;20.20;99.90;;;;;;5032880;28;19920;-55
2022/07/09 09:28:14;;;;;;;;;;;20.10;99.90;;;;;;5030720;28;19978;-55
2022/07/09 09:30:59;;;;;;;;;;;20.00;99.90;;;;;;5031105;28;20015;-56
2022/07/09 09:33:43;;;;;;;;;;;20.10;99.80;;;;;;5031470;28;20170;-58
2022/07/09 09:36:28;;;;;;;;;;;19.80;99.90;;;;;;5031069;28;19919;-56
2022/07/09 09:39:13;;;;;;;;;;;19.80;99.90;;;;;;5031559;28;19924;-55
2022/07/09 09:42:03;;;;;;;;;;;19.70;99.90;;;;;;5031509;28;20410;-57
2022/07/09 09:44:49;;;;;;;;;;;19.80;99.90;;;;;;5046955;28;19936;-58
2022/07/09 09:47:33;;;;;;;;;;;20.20;99.30;;;;;;5048734;28;20315;-56
2022/07/09 09:50:19;;;;;;;;;;;20.30;99.40;;;;;;5030895;28;20410;-52
2022/07/09 09:53:04;;;;;;;;;;;20.40;99.10;;;;;;5030856;28;20419;-53
2022/07/09 09:55:49;;;;;;;;;;;20.50;99.00;;;;;;5031564;28;19920;-56
2022/07/09 09:58:33;;;;;;;;;;;20.50;98.50;;;;;;5030761;28;20272;-56
2022/07/09 10:01:18;;;;;;;;;;;20.80;97.50;;;;;;5034439;28;19928;-54
2022/07/09 10:04:02;;;;;;;;;;;20.70;97.30;;;;;;5035661;28;19976;-54
2022/07/09 10:06:46;;;;;;;;;;;20.70;97.50;;;;;;5035279;28;20411;-55
2022/07/09 10:09:30;;;;;;;;;;;20.60;97.40;;;;;;5035134;28;20345;-54
2022/07/09 10:12:24;;;;;;;;;;;20.50;97.00;;;;;;5035241;28;20036;-57
2022/07/09 10:15:20;;;;;;;;;;;20.60;96.60;;;;;;5034447;28;19982;-58
2022/07/09 10:18:11;;;;;;;;;;;20.20;97.30;;;;;;5032751;28;19959;-57
2022/07/09 10:20:59;;;;;;;;;;;20.20;97.20;;;;;;5032520;28;19920;-57
2022/07/09 10:23:50;;;;;;;;;;;20.40;97.00;;;;;;5035524;28;19951;-56
2022/07/09 10:26:46;;;;;;;;;;;20.50;96.50;;;;;;5031529;28;19913;-56
2022/07/09 10:29:30;;;;;;;;;;;20.40;96.20;;;;;;5034615;28;20379;-53
2022/07/09 10:32:21;;;;;;;;;;;20.50;96.30;;;;;;5035223;28;19912;-55
2022/07/09 10:35:06;;;;;;;;;;;20.70;96.10;;;;;;5034375;28;20000;-56
2022/07/09 10:37:52;;;;;;;;;;;20.90;95.90;;;;;;5034136;28;19916;-57
2022/07/09 10:40:41;;;;;;;;;;;21.00;95.70;;;;;;5034893;28;19924;-56
2022/07/09 10:43:45;;;;;;;;;;;20.90;95.40;;;;;;5035274;28;19912;-55
2022/07/09 10:46:30;;;;;;;;;;;20.90;95.60;;;;;;5021361;28;20092;-53
2022/07/09 10:49:15;;;;;;;;;;;21.00;95.40;;;;;;5030133;28;19960;-54
2022/07/09 10:51:59;;;;;;;;;;;21.00;95.60;;;;;;5034931;28;20276;-53
2022/07/09 10:54:47;;;;;;;;;;;20.90;95.40;;;;;;5035367;28;20399;-57
2022/07/09 10:57:34;;;;;;;;;;;20.80;95.80;;;;;;5034493;28;19964;-58
2022/07/09 11:00:19;;;;;;;;;;;20.80;95.40;;;;;;5015064;28;19972;-52
2022/07/09 11:03:04;;;;;;;;;;;20.70;95.70;;;;;;5019651;28;20014;-56
2022/07/09 11:05:48;;;;;;;;;;;20.90;95.10;;;;;;5035983;28;19931;-57
2022/07/09 11:08:34;;;;;;;;;;;20.90;95.00;;;;;;5021271;28;19956;-57
2022/07/09 11:11:24;;;;;;;;;;;20.80;95.40;;;;;;5035660;28;19970;-59
2022/07/09 11:14:09;;;;;;;;;;;20.80;95.40;;;;;;5022386;28;19936;-58
2022/07/09 11:16:58;;;;;;;;;;;21.00;94.80;;;;;;5033556;28;20001;-56
2022/07/09 11:19:42;;;;;;;;;;;20.90;95.00;;;;;;5034144;28;19967;-58
2022/07/09 11:22:27;;;;;;;;;;;20.90;94.70;;;;;;5033920;28;20215;-58
2022/07/09 11:25:10;;;;;;;;;;;20.90;94.80;;;;;;5019185;28;19951;-58
2022/07/09 11:27:56;;;;;;;;;;;21.20;94.20;;;;;;5018842;28;20030;-56
2022/07/09 11:30:40;;;;;;;;;;;21.40;93.90;;;;;;5034479;28;19958;-55
2022/07/09 11:33:24;;;;;;;;;;;21.40;94.00;;;;;;5033449;28;19924;-56
2022/07/09 11:36:09;;;;;;;;;;;21.40;93.90;;;;;;5032993;28;19967;-54
2022/07/09 11:38:53;;;;;;;;;;;21.30;94.10;;;;;;5033503;28;20430;-55
2022/07/09 11:41:44;;;;;;;;;;;21.30;94.00;;;;;;5033405;28;19966;-53
2022/07/09 11:44:34;;;;;;;;;;;21.20;94.10;;;;;;5043274;28;20382;-55
2022/07/09 11:47:22;;;;;;;;;;;21.20;94.50;;;;;;5026754;28;19920;-56
2022/07/09 11:50:10;;;;;;;;;;;21.30;94.50;;;;;;5033621;28;19912;-56
2022/07/09 11:52:54;;;;;;;;;;;21.60;94.10;;;;;;5017995;28;19932;-57
2022/07/09 11:55:39;;;;;;;;;;;21.70;93.70;;;;;;5034379;28;19952;-56
2022/07/09 11:58:23;;;;;;;;;;;21.70;93.90;;;;;;5033550;28;20379;-56
2022/07/09 12:01:11;;;;;;;;;;;21.60;94.10;;;;;;5032490;28;19924;-54
2022/07/09 12:03:56;;;;;;;;;;;21.50;94.40;;;;;;5032860;28;19969;-54
2022/07/09 12:06:48;;;;;;;;;;;21.60;93.70;;;;;;5032616;28;20085;-57
2022/07/09 12:09:32;;;;;;;;;;;21.30;94.00;;;;;;5032352;28;20316;-55
2022/07/09 12:12:16;;;;;;;;;;;21.20;94.10;;;;;;5032170;28;20396;-56
2022/07/09 12:15:01;;;;;;;;;;;21.20;94.30;;;;;;5032469;28;20026;-57
2022/07/09 12:17:50;;;;;;;;;;;21.10;93.90;;;;;;5031699;28;19936;-51
2022/07/09 12:20:34;;;;;;;;;;;21.20;93.80;;;;;;5032215;28;19954;-56
2022/07/09 12:23:18;;;;;;;;;;;21.30;95.10;;;;;;5031907;28;19959;-54
2022/07/09 12:26:02;;;;;;;;;;;21.30;95.80;;;;;;5032393;28;19920;-58
2022/07/09 12:28:47;;;;;;;;;;;21.40;95.90;;;;;;5033105;28;19986;-57
2022/07/09 12:31:32;;;;;;;;;;;21.20;96.50;;;;;;5032560;28;19920;-52
2022/07/09 12:34:16;;;;;;;;;;;21.30;95.40;;;;;;5033049;28;20005;-58
2022/07/09 12:37:00;;;;;;;;;;;21.30;94.80;;;;;;5032779;28;19916;-57
2022/07/09 12:39:45;;;;;;;;;;;20.80;96.90;;;;;;5047999;28;20489;-55
2022/07/09 12:42:29;;;;;;;;;;;19.90;98.90;;;;;;5045186;28;20279;-51
2022/07/09 12:45:13;;;;;;;;;;;19.40;99.90;;;;;;5012120;28;20380;-55
2022/07/09 12:47:57;;;;;;;;;;;19.00;99.90;;;;;;5017831;28;19920;-53
2022/07/09 12:50:42;;;;;;;;;;;18.90;99.90;;;;;;5031695;28;19934;-53
2022/07/09 12:53:26;;;;;;;;;;;18.80;99.90;;;;;;5032090;28;19920;-58
2022/07/09 12:56:10;;;;;;;;;;;18.80;99.90;;;;;;5031896;28;19923;-51
2022/07/09 12:58:54;;;;;;;;;;;18.90;99.90;;;;;;5012460;28;19917;-57
2022/07/09 13:01:38;;;;;;;;;;;19.00;99.90;;;;;;5015683;28;19920;-53
2022/07/09 13:04:23;;;;;;;;;;;19.10;99.90;;;;;;5032611;28;20302;-56
2022/07/09 13:07:07;;;;;;;;;;;19.20;99.90;;;;;;5031279;28;19927;-52
2022/07/09 13:09:52;;;;;;;;;;;19.10;99.50;;;;;;5031882;28;19920;-55
2022/07/09 13:12:36;;;;;;;;;;;19.20;99.90;;;;;;5012773;28;19919;-54
2022/07/09 13:15:21;;;;;;;;;;;19.30;99.90;;;;;;5015205;28;19924;-53
2022/07/09 13:18:05;;;;;;;;;;;19.20;99.90;;;;;;5031625;28;20250;-58
2022/07/09 13:20:49;;;;;;;;;;;19.30;99.90;;;;;;5031448;28;19967;-55
2022/07/09 13:23:34;;;;;;;;;;;19.20;99.90;;;;;;5031844;28;19919;-56
2022/07/09 13:26:18;;;;;;;;;;;19.30;99.90;;;;;;5016135;28;19919;-57
2022/07/09 13:29:02;;;;;;;;;;;19.30;99.90;;;;;;5032165;28;19975;-55
2022/07/09 13:31:46;;;;;;;;;;;19.40;99.90;;;;;;5031132;28;20387;-56
2022/07/09 13:34:30;;;;;;;;;;;19.60;99.90;;;;;;5032383;28;19920;-55
2022/07/09 13:37:15;;;;;;;;;;;20.00;99.90;;;;;;5035181;28;19936;-54
2022/07/09 13:39:59;;;;;;;;;;;20.40;99.90;;;;;;5035033;28;19920;-56
2022/07/09 13:42:43;;;;;;;;;;;20.70;99.90;;;;;;5035088;28;19963;-52
2022/07/09 13:45:28;;;;;;;;;;;20.80;99.90;;;;;;5035242;28;19924;-57
2022/07/09 13:48:12;;;;;;;;;;;21.00;99.90;;;;;;5020172;28;19993;-54
2022/07/09 13:50:56;;;;;;;;;;;21.50;99.90;;;;;;5019947;28;20272;-54
2022/07/09 13:53:42;;;;;;;;;;;22.00;98.50;;;;;;5035258;28;19916;-58
2022/07/09 13:56:26;;;;;;;;;;;22.70;96.70;;;;;;5035684;28;20335;-56
2022/07/09 13:59:10;;;;;;;;;;;23.10;95.10;;;;;;5035478;28;19978;-52
2022/07/09 14:01:56;;;;;;;;;;;23.10;94.30;;;;;;5035604;28;19920;-55
2022/07/09 14:04:40;;;;;;;;;;;23.50;94.50;;;;;;5035377;28;20375;-57
2022/07/09 14:07:24;;;;;;;;;;;23.40;92.90;;;;;;5035069;28;19940;-57
2022/07/09 14:10:09;;;;;;;;;;;23.70;92.60;;;;;;5016431;28;19916;-56
2022/07/09 14:12:53;;;;;;;;;;;23.60;93.60;;;;;;5034749;28;19916;-57
2022/07/09 14:15:37;;;;;;;;;;;23.40;93.00;;;;;;5034745;28;20066;-55
2022/07/09 14:18:22;;;;;;;;;;;23.40;93.10;;;;;;5027903;28;19959;-53
2022/07/09 14:21:06;;;;;;;;;;;23.00;92.50;;;;;;5035042;28;20280;-56
2022/07/09 14:23:50;;;;;;;;;;;22.40;93.10;;;;;;5035347;28;19928;-54
2022/07/09 14:26:35;;;;;;;;;;;22.40;93.80;;;;;;5034871;28;19920;-55
2022/07/09 14:29:19;;;;;;;;;;;22.60;93.70;;;;;;5034931;28;20281;-57
2022/07/09 14:32:03;;;;;;;;;;;23.10;93.30;;;;;;5019595;28;19991;-55
2022/07/09 14:34:47;;;;;;;;;;;23.70;92.60;;;;;;5034534;28;20148;-56
2022/07/09 14:37:32;;;;;;;;;;;23.80;92.40;;;;;;5035161;28;19924;-55
2022/07/09 14:40:16;;;;;;;;;;;23.90;92.10;;;;;;5035287;28;19916;-55
2022/07/09 14:43:01;;;;;;;;;;;23.90;92.90;;;;;;5020452;28;20552;-56
2022/07/09 14:45:45;;;;;;;;;;;24.20;92.00;;;;;;5052897;28;20003;-54
2022/07/09 14:48:29;;;;;;;;;;;24.10;91.70;;;;;;5034818;28;19920;-52
2022/07/09 14:51:14;;;;;;;;;;;24.00;91.70;;;;;;5034451;28;19920;-57
2022/07/09 14:54:01;;;;;;;;;;;24.10;92.30;;;;;;5034285;28;20213;-58
2022/07/09 14:56:46;;;;;;;;;;;24.30;91.30;;;;;;5033574;28;19940;-57
2022/07/09 14:59:30;;;;;;;;;;;24.50;91.00;;;;;;5034675;28;19956;-58
2022/07/09 15:02:14;;;;;;;;;;;24.30;91.00;;;;;;5018723;28;19927;-59
2022/07/09 15:04:58;;;;;;;;;;;24.00;92.00;;;;;;5034039;28;19966;-57
2022/07/09 15:07:43;;;;;;;;;;;24.00;92.60;;;;;;5014107;28;19921;-55
2022/07/09 15:10:27;;;;;;;;;;;24.10;92.30;;;;;;5017242;28;19972;-55
2022/07/09 15:13:11;;;;;;;;;;;24.20;91.60;;;;;;5034720;28;20354;-57
2022/07/09 15:15:55;;;;;;;;;;;24.20;91.80;;;;;;5033949;28;19963;-53
2022/07/09 15:18:39;;;;;;;;;;;23.90;91.80;;;;;;5033878;28;19912;-53
2022/07/09 15:21:26;;;;;;;;;;;24.10;92.00;;;;;;5032830;28;20383;-52
2022/07/09 15:24:10;;;;;;;;;;;24.50;91.30;;;;;;5033453;28;19924;-49
2022/07/09 15:26:54;;;;;;;;;;;24.80;90.80;;;;;;5033838;28;19920;-49
2022/07/09 15:29:38;;;;;;;;;;;25.00;90.80;;;;;;5033489;28;19967;-52
2022/07/09 15:32:22;;;;;;;;;;;25.00;90.60;;;;;;5017882;28;20396;-53
2022/07/09 15:35:11;;;;;;;;;;;25.20;90.30;;;;;;5032988;28;19955;-50
2022/07/09 15:37:55;;;;;;;;;;;25.40;89.60;;;;;;5031813;28;20015;-56
2022/07/09 15:40:39;;;;;;;;;;;25.40;88.80;;;;;;5031700;28;20062;-54
2022/07/09 15:43:23;;;;;;;;;;;25.10;78.50;;;;;;5039450;28;19912;-52
2022/07/09 15:46:08;;;;;;;;;;;24.30;76.50;;;;;;5031037;28;20358;-53
2022/07/09 15:48:52;;;;;;;;;;;24.00;76.50;;;;;;5031666;28;19932;-52
2022/07/09 15:51:36;;;;;;;;;;;23.80;76.60;;;;;;5032026;28;20199;-53
2022/07/09 15:54:20;;;;;;;;;;;23.50;76.80;;;;;;5031852;28;19962;-54
2022/07/09 15:57:05;;;;;;;;;;;23.30;78.50;;;;;;5015745;28;19995;-53